Time;durP1;ratioP1;P1;durP2;ratioP2;P2;SDS_P1;SDS_P2;PMS_P1;PMS_P2;Temp;Humidity;BMP_temperature;BMP_pressure;BME280_temperature;BME280_humidity;BME280_pressure;Samples;Min_cycle;Max_cycle;Signal;HPM_P1;HPM_P2
2023/05/22 00:00:25;;;;;;;0.40;0.30;;;;;;;16.39;93.68;94978.69;5076552;28;20445;-66
2023/05/22 00:02:53;;;;;;;0.40;0.30;;;;;;;16.48;92.77;94974.13;5072957;28;20434;-66
2023/05/22 00:05:22;;;;;;;0.80;0.40;;;;;;;16.74;97.17;94974.94;5074744;28;20856;-63
2023/05/22 00:07:52;;;;;;;0.30;0.30;;;;;;;16.69;100.00;94972.44;5074696;28;20464;-64
2023/05/22 00:10:20;;;;;;;0.40;0.40;;;;;;;16.93;98.65;94972.72;5073842;28;20438;-65
2023/05/22 00:12:49;;;;;;;0.40;0.30;;;;;;;16.98;93.31;94969.09;5073692;28;20444;-65
2023/05/22 00:15:17;;;;;;;0.40;0.30;;;;;;;16.83;94.18;94962.34;5073985;28;20494;-65
2023/05/22 00:17:46;;;;;;;0.70;0.50;;;;;;;16.88;94.28;94975.56;5073393;28;20477;-65
2023/05/22 00:20:15;;;;;;;3.90;0.40;;;;;;;16.87;93.85;94965.19;5073499;28;20445;-65
2023/05/22 00:22:43;;;;;;;0.30;0.20;;;;;;;17.05;92.37;94966.75;5073136;28;20442;-65
2023/05/22 00:25:13;;;;;;;0.50;0.50;;;;;;;17.08;91.58;94971.44;5072992;28;20433;-65
2023/05/22 00:27:42;;;;;;;0.87;0.37;;;;;;;16.99;93.51;94943.91;5073079;28;21017;-65
2023/05/22 00:30:11;;;;;;;0.70;0.60;;;;;;;16.98;94.76;94961.06;5074203;28;20434;-65
2023/05/22 00:32:40;;;;;;;1.43;0.60;;;;;;;16.45;97.83;94875.78;5073512;28;20859;-64
2023/05/22 00:35:09;;;;;;;0.30;0.20;;;;;;;16.95;97.89;94945.66;5073885;28;20516;-64
2023/05/22 00:37:38;;;;;;;0.40;0.40;;;;;;;16.85;96.69;94909.28;5073615;28;20522;-64
2023/05/22 00:40:08;;;;;;;0.93;0.93;;;;;;;17.12;96.29;94948.28;5073806;28;20434;-64
2023/05/22 00:42:38;;;;;;;0.40;0.30;;;;;;;17.19;95.09;94956.59;5073656;28;20499;-64
2023/05/22 00:45:07;;;;;;;1.33;0.40;;;;;;;17.22;95.89;94950.63;5073187;28;20939;-64
2023/05/22 00:47:35;;;;;;;0.30;0.20;;;;;;;17.22;96.93;94953.31;5073412;28;20473;-64
2023/05/22 00:50:05;;;;;;;0.40;0.30;;;;;;;16.92;98.97;94959.66;5073026;28;20438;-64
2023/05/22 00:52:34;;;;;;;0.40;0.30;;;;;;;16.93;100.00;94962.00;5073573;28;20445;-64
2023/05/22 00:55:04;;;;;;;0.40;0.40;;;;;;;16.94;100.00;94952.09;5073027;28;20438;-64
2023/05/22 00:57:33;;;;;;;0.40;0.40;;;;;;;16.60;100.00;94949.44;5073585;28;20491;-64
2023/05/22 01:00:04;;;;;;;0.40;0.20;;;;;;;16.61;100.00;94949.13;5073022;28;20781;-64
2023/05/22 01:02:35;;;;;;;0.40;0.30;;;;;;;16.50;100.00;94959.34;5073532;28;20893;-64
2023/05/22 01:05:05;;;;;;;0.47;0.40;;;;;;;16.57;100.00;94947.41;5071720;28;20516;-64
2023/05/22 01:07:36;;;;;;;0.50;0.30;;;;;;;16.74;100.00;94944.72;5073005;28;20792;-64
2023/05/22 01:10:05;;;;;;;0.40;0.30;;;;;;;16.54;100.00;94907.91;5072924;28;20430;-64
2023/05/22 01:12:43;;;;;;;0.40;0.30;;;;;;;16.87;100.00;94949.91;5072848;28;20442;-64
2023/05/22 01:15:21;;;;;;;0.40;0.30;;;;;;;16.91;100.00;94958.06;5073194;28;20437;-64
2023/05/22 01:17:56;;;;;;;0.50;0.50;;;;;;;16.88;100.00;94943.44;5072810;28;20441;-64
2023/05/22 01:20:31;;;;;;;0.40;0.30;;;;;;;16.93;100.00;94956.66;5072677;28;20801;-64
2023/05/22 01:23:35;;;;;;;5.80;0.47;;;;;;;16.78;100.00;94945.66;5062445;28;20441;-64
2023/05/22 01:26:19;;;;;;;5.40;0.40;;;;;;;16.61;100.00;94951.81;5072897;28;20500;-64
2023/05/22 01:29:15;;;;;;;0.43;0.40;;;;;;;16.63;100.00;94919.38;5072042;28;20534;-64
2023/05/22 01:31:48;;;;;;;3.40;0.30;;;;;;;16.84;100.00;94947.88;5072356;28;20438;-64
2023/05/22 01:34:18;;;;;;;1.30;0.77;;;;;;;16.91;100.00;94947.38;5072421;28;20433;-64
2023/05/22 01:36:48;;;;;;;2.43;0.70;;;;;;;16.79;100.00;94933.84;5072370;28;20495;-64
2023/05/22 01:39:19;;;;;;;0.30;0.20;;;;;;;16.89;100.00;94936.19;5072500;28;20516;-64
2023/05/22 01:41:47;;;;;;;0.40;0.30;;;;;;;16.80;100.00;94933.53;5072600;28;20494;-63
2023/05/22 01:44:16;;;;;;;0.40;0.30;;;;;;;16.86;100.00;94932.25;5072412;28;20438;-64
2023/05/22 01:46:46;;;;;;;0.50;0.40;;;;;;;16.91;100.00;94933.97;5072451;28;20453;-63
2023/05/22 01:49:14;;;;;;;0.40;0.30;;;;;;;16.73;100.00;94925.19;5064921;28;20527;-64
2023/05/22 01:51:52;;;;;;;0.30;0.20;;;;;;;16.74;100.00;94929.47;5066125;28;20445;-63
2023/05/22 01:54:25;;;;;;;0.40;0.30;;;;;;;16.79;100.00;94929.28;5071349;28;20822;-63
2023/05/22 01:56:59;;;;;;;0.40;0.30;;;;;;;16.89;100.00;94922.81;5071575;28;20437;-64
2023/05/22 01:59:34;;;;;;;3.27;0.80;;;;;;;16.82;100.00;94917.97;5071484;28;20438;-63
2023/05/22 02:02:07;;;;;;;0.40;0.30;;;;;;;16.31;100.00;94918.75;5071658;28;20487;-63
2023/05/22 02:04:41;;;;;;;0.40;0.40;;;;;;;16.53;100.00;94920.50;5071707;28;20445;-63
2023/05/22 02:07:12;;;;;;;0.40;0.20;;;;;;;16.67;100.00;94901.59;5071728;28;20499;-64
2023/05/22 02:09:42;;;;;;;0.53;0.43;;;;;;;16.73;100.00;94919.06;5071549;28;20888;-64
2023/05/22 02:12:12;;;;;;;0.40;0.40;;;;;;;16.46;100.00;94917.47;5071803;28;20846;-64
2023/05/22 02:14:42;;;;;;;0.40;0.30;;;;;;;16.20;100.00;94914.78;5071193;28;20437;-64
2023/05/22 02:17:12;;;;;;;0.40;0.40;;;;;;;16.37;100.00;94922.81;5071278;28;20441;-63
2023/05/22 02:19:40;;;;;;;1.70;0.80;;;;;;;16.43;100.00;94918.09;5071362;28;20499;-64
2023/05/22 02:22:12;;;;;;;1.00;1.00;;;;;;;16.39;100.00;94917.94;5071932;28;20912;-63
2023/05/22 02:24:41;;;;;;;0.40;0.20;;;;;;;15.68;100.00;94793.72;5072163;28;20433;-63
2023/05/22 02:27:10;;;;;;;0.50;0.40;;;;;;;16.35;100.00;94926.91;5071795;28;20503;-63
2023/05/22 02:29:39;;;;;;;0.30;0.30;;;;;;;16.20;100.00;94922.81;5071925;28;20600;-63
2023/05/22 02:32:08;;;;;;;0.50;0.40;;;;;;;16.24;100.00;94923.00;5071347;28;20477;-63
2023/05/22 02:34:38;;;;;;;0.40;0.40;;;;;;;16.23;100.00;94924.88;5070919;28;20961;-63
2023/05/22 02:37:06;;;;;;;0.60;0.60;;;;;;;16.16;100.00;94924.56;5071141;28;20943;-63
2023/05/22 02:39:34;;;;;;;0.40;0.30;;;;;;;16.36;100.00;94933.84;5071475;28;20973;-63
2023/05/22 02:42:03;;;;;;;2.63;0.60;;;;;;;16.07;100.00;94864.13;5071020;28;20437;-63
2023/05/22 02:44:31;;;;;;;0.40;0.40;;;;;;;16.52;100.00;94925.06;5071611;28;20437;-63
2023/05/22 02:46:59;;;;;;;0.40;0.20;;;;;;;16.61;100.00;94917.03;5071356;28;20433;-63
2023/05/22 02:49:28;;;;;;;0.33;0.27;;;;;;;16.49;99.31;94914.94;5071904;28;20488;-63
2023/05/22 02:51:57;;;;;;;0.40;0.40;;;;;;;16.39;100.00;94920.63;5071014;28;20994;-63
2023/05/22 02:54:26;;;;;;;0.40;0.30;;;;;;;16.39;100.00;94928.63;5071384;28;20437;-63
2023/05/22 02:56:54;;;;;;;0.70;0.40;;;;;;;16.48;98.41;94936.66;5057919;28;20430;-63
2023/05/22 02:59:23;;;;;;;0.50;0.27;;;;;;;16.59;100.00;94931.81;5071423;28;20459;-63
2023/05/22 03:01:53;;;;;;;0.67;0.40;;;;;;;16.57;99.47;94931.38;5071082;28;20788;-63
2023/05/22 03:04:21;;;;;;;0.30;0.20;;;;;;;16.62;100.00;94928.53;5071523;28;20444;-63
2023/05/22 03:06:50;;;;;;;0.40;0.40;;;;;;;16.36;100.00;94942.66;5070802;28;20981;-63
2023/05/22 03:09:20;;;;;;;2.30;0.40;;;;;;;16.46;100.00;94931.66;5071502;28;20485;-64
2023/05/22 03:11:48;;;;;;;0.40;0.37;;;;;;;16.16;97.84;94934.47;5071282;28;20791;-64
2023/05/22 03:14:16;;;;;;;0.40;0.40;;;;;;;16.00;96.75;94923.44;5071553;28;20524;-64
2023/05/22 03:16:45;;;;;;;2.30;0.50;;;;;;;15.74;98.34;94933.25;5071267;28;20506;-64
2023/05/22 03:19:15;;;;;;;0.80;0.80;;;;;;;15.48;98.13;94927.06;5070312;28;20477;-64
2023/05/22 03:21:44;;;;;;;0.57;0.53;;;;;;;15.52;98.92;94928.81;5070982;28;20445;-64
2023/05/22 03:26:59;;;;;;;0.80;0.60;;;;;;;15.59;98.82;94923.00;5070551;28;20469;-63
2023/05/22 03:29:27;;;;;;;0.50;0.50;;;;;;;15.19;98.64;94882.16;5071015;28;20496;-63
2023/05/22 03:31:57;;;;;;;0.70;0.70;;;;;;;15.54;97.10;94923.94;5071230;28;20899;-64
2023/05/22 03:34:26;;;;;;;0.50;0.33;;;;;;;15.58;96.60;94934.81;5070687;28;20531;-63
2023/05/22 03:36:56;;;;;;;0.60;0.50;;;;;;;15.58;97.09;94940.16;5074144;28;20494;-63
2023/05/22 03:39:25;;;;;;;0.40;0.30;;;;;;;15.72;96.00;94933.59;5074918;28;20468;-63
2023/05/22 03:41:53;;;;;;;0.97;0.33;;;;;;;16.00;96.93;94941.34;5075027;28;20487;-63
2023/05/22 03:44:23;;;;;;;0.57;0.57;;;;;;;15.81;93.79;94928.28;5075067;28;20442;-63
2023/05/22 03:46:51;;;;;;;1.13;1.13;;;;;;;15.65;94.01;94932.47;5074101;28;20491;-63
2023/05/22 03:49:20;;;;;;;1.13;1.13;;;;;;;15.73;93.83;94934.38;5074520;28;21024;-62
2023/05/22 03:51:48;;;;;;;1.37;1.27;;;;;;;15.72;92.57;94936.25;5072269;28;20441;-62
2023/05/22 03:54:16;;;;;;;0.40;0.30;;;;;;;15.86;91.92;94938.81;5063933;28;20438;-62
2023/05/22 03:56:44;;;;;;;0.70;0.70;;;;;;;15.73;89.87;94932.50;5074055;28;20511;-62
2023/05/22 03:59:13;;;;;;;2.43;0.97;;;;;;;15.83;88.79;94942.09;5074653;28;20441;-62
2023/05/22 04:01:45;;;;;;;0.87;0.87;;;;;;;15.82;88.11;94933.28;5074104;28;20434;-62
2023/05/22 04:04:15;;;;;;;0.50;0.50;;;;;;;15.83;88.28;94950.13;5074222;28;20468;-62
2023/05/22 04:06:43;;;;;;;0.50;0.50;;;;;;;16.03;87.84;94949.53;5062206;28;20849;-63
2023/05/22 04:09:12;;;;;;;1.70;0.93;;;;;;;15.85;86.40;94927.34;5073971;28;21008;-63
2023/05/22 04:11:41;;;;;;;1.80;0.90;;;;;;;16.21;86.49;94953.03;5074172;28;20635;-63
2023/05/22 04:14:09;;;;;;;0.77;0.40;;;;;;;16.27;84.92;94951.75;5074108;28;20829;-63
2023/05/22 04:16:38;;;;;;;0.60;0.40;;;;;;;16.34;82.79;94950.19;5073888;28;20445;-63
2023/05/22 04:19:08;;;;;;;2.20;0.40;;;;;;;16.44;81.60;94957.91;5074164;28;20438;-62
2023/05/22 04:21:37;;;;;;;0.40;0.20;;;;;;;16.74;82.93;94955.44;5048790;28;20516;-63
2023/05/22 04:24:06;;;;;;;0.83;0.60;;;;;;;16.80;80.46;94960.28;5073943;28;20815;-63
2023/05/22 04:26:36;;;;;;;0.40;0.40;;;;;;;16.65;80.80;94957.31;5073409;28;20437;-64
2023/05/22 04:29:09;;;;;;;0.50;0.40;;;;;;;16.40;80.88;94908.81;5073148;28;20438;-64
2023/05/22 04:31:37;;;;;;;0.40;0.30;;;;;;;16.76;80.79;94955.88;5074001;28;20433;-63
2023/05/22 04:34:10;;;;;;;0.50;0.50;;;;;;;16.78;81.43;94953.69;5073261;28;20438;-64
2023/05/22 04:36:39;;;;;;;0.40;0.40;;;;;;;16.47;77.94;94956.47;5073767;28;20438;-64
2023/05/22 04:39:08;;;;;;;0.50;0.40;;;;;;;16.68;77.60;94960.16;5073648;28;20437;-63
2023/05/22 04:41:36;;;;;;;0.40;0.30;;;;;;;16.71;75.96;94969.44;5074429;28;20865;-64
2023/05/22 04:44:05;;;;;;;0.50;0.50;;;;;;;16.78;75.41;94964.38;5073497;28;20430;-64
2023/05/22 04:46:34;;;;;;;15.43;1.80;;;;;;;16.68;75.77;94952.13;5073248;28;20495;-64
2023/05/22 04:49:03;;;;;;;1.43;0.60;;;;;;;16.71;74.22;94970.22;5073320;28;20430;-64
2023/05/22 04:51:33;;;;;;;0.90;0.90;;;;;;;16.78;74.07;94962.50;5072928;28;20747;-65
2023/05/22 04:54:02;;;;;;;0.40;0.40;;;;;;;16.97;75.78;94970.22;5065858;28;20442;-65
2023/05/22 04:56:30;;;;;;;0.70;0.70;;;;;;;16.96;75.43;94968.63;5067960;28;20540;-65
2023/05/22 04:59:07;;;;;;;0.40;0.40;;;;;;;17.03;73.10;94966.25;5073535;28;20963;-65
2023/05/22 05:01:36;;;;;;;0.40;0.30;;;;;;;16.85;72.95;94964.72;5073138;28;20450;-65
2023/05/22 05:04:05;;;;;;;0.73;0.40;;;;;;;16.95;72.67;94967.84;5073333;28;20803;-65
2023/05/22 05:06:36;;;;;;;0.40;0.30;;;;;;;17.08;73.98;94964.19;5073355;28;20438;-65
2023/05/22 05:09:05;;;;;;;0.50;0.30;;;;;;;17.14;72.81;94967.50;5072920;28;20444;-65
2023/05/22 05:11:33;;;;;;;0.50;0.50;;;;;;;17.26;73.35;94972.19;5072795;28;20482;-66
2023/05/22 05:14:01;;;;;;;0.50;0.50;;;;;;;17.17;72.51;94966.06;5073545;28;20449;-65
2023/05/22 05:16:30;;;;;;;1.00;0.90;;;;;;;17.07;71.95;94962.63;5072561;28;20516;-65
2023/05/22 05:18:58;;;;;;;0.60;0.60;;;;;;;16.94;71.02;94965.47;5073372;28;20440;-66
2023/05/22 05:21:27;;;;;;;0.83;0.63;;;;;;;17.15;72.28;94963.72;5072903;28;20438;-67
2023/05/22 05:23:57;;;;;;;0.30;0.20;;;;;;;17.40;70.94;94959.41;5072388;28;20445;-61
2023/05/22 05:26:25;;;;;;;0.40;0.30;;;;;;;17.47;71.01;94948.97;5072649;28;20442;-67
2023/05/22 05:28:55;;;;;;;0.40;0.30;;;;;;;17.65;70.26;94963.91;5072300;28;20441;-68
2023/05/22 05:31:23;;;;;;;0.30;0.27;;;;;;;17.82;70.53;94961.13;5072318;28;21001;-68
2023/05/22 05:33:52;;;;;;;0.50;0.40;;;;;;;17.82;70.16;94960.34;5071677;28;20442;-68
2023/05/22 05:36:20;;;;;;;0.53;0.43;;;;;;;17.81;69.90;94964.91;5072524;28;20438;-69
2023/05/22 05:38:48;;;;;;;0.90;0.63;;;;;;;17.75;68.81;94972.38;5071620;28;20507;-68
2023/05/22 05:41:18;;;;;;;1.73;0.77;;;;;;;17.75;71.65;94961.66;5071829;28;20864;-67
2023/05/22 05:43:47;;;;;;;1.00;0.90;;;;;;;17.73;68.90;94969.22;5072072;28;20433;-67
2023/05/22 05:46:15;;;;;;;0.53;0.40;;;;;;;17.78;70.72;94963.66;5072452;28;20446;-66
2023/05/22 05:48:44;;;;;;;0.67;0.40;;;;;;;18.02;70.16;94968.44;5072390;28;20463;-66
2023/05/22 05:51:12;;;;;;;5.87;0.80;;;;;;;17.69;69.70;94921.94;5072211;28;20835;-66
2023/05/22 05:53:41;;;;;;;0.53;0.30;;;;;;;18.18;68.81;94974.03;5072537;28;20429;-68
2023/05/22 05:56:09;;;;;;;1.03;1.03;;;;;;;18.24;67.79;94972.75;5061074;28;20454;-69
2023/05/22 05:58:39;;;;;;;0.40;0.30;;;;;;;18.43;67.66;94973.09;5070253;28;20434;-70
2023/05/22 06:01:08;;;;;;;3.27;0.63;;;;;;;18.42;67.05;94974.19;5071979;28;20437;-71
2023/05/22 06:03:37;;;;;;;0.97;0.43;;;;;;;18.47;67.51;94975.94;5071471;28;20446;-72
2023/05/22 06:06:06;;;;;;;0.43;0.30;;;;;;;18.63;67.26;94968.84;5071726;28;20946;-67
2023/05/22 06:08:34;;;;;;;0.60;0.60;;;;;;;18.78;66.13;94976.31;5071748;28;20442;-71
2023/05/22 06:11:02;;;;;;;1.00;0.50;;;;;;;18.80;65.13;94974.88;5071636;28;20473;-70
2023/05/22 06:13:31;;;;;;;0.53;0.37;;;;;;;18.91;65.91;94976.06;5072081;28;20439;-70
2023/05/22 06:16:01;;;;;;;0.60;0.60;;;;;;;19.01;65.31;94954.16;5072249;28;20442;-70
2023/05/22 06:18:33;;;;;;;1.67;1.57;;;;;;;19.10;65.78;94972.84;5071453;28;20961;-59
2023/05/22 06:21:01;;;;;;;0.80;0.80;;;;;;;18.44;65.16;94843.19;5071487;28;20976;-69
2023/05/22 06:23:31;;;;;;;0.40;0.40;;;;;;;19.26;64.58;94981.88;5071863;28;20438;-70
2023/05/22 06:25:59;;;;;;;0.40;0.30;;;;;;;19.50;64.09;94979.28;5071393;28;20437;-70
2023/05/22 06:28:27;;;;;;;0.50;0.40;;;;;;;19.31;62.51;94960.16;5071369;28;20469;-70
2023/05/22 06:30:57;;;;;;;0.30;0.20;;;;;;;19.70;63.04;94963.41;5071690;28;20917;-70
2023/05/22 06:33:27;;;;;;;0.50;0.50;;;;;;;19.84;61.31;94964.63;5071734;28;20441;-69
2023/05/22 06:35:55;;;;;;;0.40;0.40;;;;;;;19.74;60.41;94966.97;5071199;28;20438;-73
2023/05/22 06:38:24;;;;;;;0.40;0.30;;;;;;;19.89;60.43;94974.38;5070731;28;20532;-69
2023/05/22 06:40:52;;;;;;;0.50;0.40;;;;;;;20.02;61.31;94976.75;5071270;28;20437;-69
2023/05/22 06:43:20;;;;;;;0.50;0.37;;;;;;;20.16;62.50;94966.41;5071297;28;20445;-70
2023/05/22 06:45:49;;;;;;;9.60;0.70;;;;;;;19.99;61.74;94974.72;5071191;28;20442;-69
2023/05/22 06:48:17;;;;;;;0.50;0.50;;;;;;;19.99;60.44;94966.66;5071108;28;20469;-69
2023/05/22 06:50:47;;;;;;;0.40;0.40;;;;;;;19.80;61.02;94911.88;5071440;28;21141;-70
2023/05/22 06:53:15;;;;;;;1.13;0.70;;;;;;;20.24;59.93;94978.22;5071321;28;20445;-69
2023/05/22 06:55:45;;;;;;;2.40;0.60;;;;;;;20.36;61.19;94977.44;5073114;28;20973;-74
2023/05/22 06:58:13;;;;;;;0.40;0.30;;;;;;;20.54;60.92;94981.44;5074066;28;20868;-75
2023/05/22 07:00:41;;;;;;;0.40;0.30;;;;;;;20.65;59.33;94980.63;5071838;28;20927;-74
2023/05/22 07:03:10;;;;;;;2.80;0.60;;;;;;;20.61;59.24;94982.44;5071695;28;20981;-73
2023/05/22 07:05:39;;;;;;;0.50;0.50;;;;;;;20.46;58.80;94979.66;5071457;28;20918;-74
2023/05/22 07:08:09;;;;;;;0.50;0.40;;;;;;;20.79;59.29;94974.88;5070967;28;20942;-73
2023/05/22 07:10:37;;;;;;;0.43;0.30;;;;;;;20.93;58.32;94977.97;5072590;28;20551;-73
2023/05/22 07:13:06;;;;;;;0.40;0.30;;;;;;;21.30;58.51;94976.69;5075633;28;20434;-72
2023/05/22 07:15:34;;;;;;;0.47;0.30;;;;;;;21.01;57.88;94978.94;5075695;28;20469;-71
2023/05/22 07:18:03;;;;;;;0.60;0.40;;;;;;;20.89;54.96;94966.31;5075349;28;20434;-71
2023/05/22 07:20:31;;;;;;;0.40;0.30;;;;;;;20.82;56.85;94966.88;5075169;28;20453;-71
2023/05/22 07:23:00;;;;;;;1.23;0.40;;;;;;;20.83;56.99;94978.44;5074811;28;20434;-70
2023/05/22 07:25:30;;;;;;;2.23;0.67;;;;;;;20.76;57.47;94972.84;5075044;28;20481;-70
2023/05/22 07:28:00;;;;;;;1.00;1.00;;;;;;;20.70;60.60;94968.81;5074611;28;20520;-70
2023/05/22 07:30:29;;;;;;;0.40;0.30;;;;;;;21.27;58.91;94971.22;5075203;28;20437;-69
2023/05/22 07:32:57;;;;;;;0.93;0.93;;;;;;;20.97;57.40;94961.91;5075081;28;20483;-70
2023/05/22 07:35:26;;;;;;;0.47;0.30;;;;;;;20.79;57.41;94962.19;5075115;28;20488;-69
2023/05/22 07:37:54;;;;;;;0.50;0.40;;;;;;;20.72;57.59;94958.53;5074844;28;20444;-69
2023/05/22 07:40:22;;;;;;;1.13;0.30;;;;;;;20.73;54.95;94960.06;5074744;28;20889;-70
2023/05/22 07:42:54;;;;;;;0.40;0.33;;;;;;;21.25;56.44;94968.88;5075145;28;20433;-69
2023/05/22 07:45:23;;;;;;;1.03;0.30;;;;;;;21.17;54.07;94967.13;5074481;28;20812;-69
2023/05/22 07:47:51;;;;;;;0.70;0.60;;;;;;;21.03;53.85;94958.59;5074740;28;20434;-68
2023/05/22 07:50:25;;;;;;;0.53;0.40;;;;;;;21.32;54.69;94962.88;5074382;28;20524;-68
2023/05/22 07:52:53;;;;;;;0.40;0.30;;;;;;;21.86;54.60;94972.00;5074798;28;20970;-67
2023/05/22 07:55:22;;;;;;;0.60;0.40;;;;;;;21.53;54.24;94966.13;5074154;28;20461;-68
2023/05/22 07:57:51;;;;;;;0.60;0.60;;;;;;;21.85;55.24;94977.72;5074364;28;20438;-68
2023/05/22 08:00:22;;;;;;;8.67;0.60;;;;;;;21.52;57.05;94967.28;5074353;28;20445;-66
2023/05/22 08:02:50;;;;;;;3.80;1.90;;;;;;;21.30;53.60;94971.31;5074319;28;20441;-64
2023/05/22 08:05:19;;;;;;;1.83;1.73;;;;;;;20.85;54.71;94976.97;5047996;28;20434;-67
2023/05/22 08:07:47;;;;;;;0.47;0.47;;;;;;;20.94;55.37;94978.75;5073370;28;20941;-67
2023/05/22 08:10:18;;;;;;;1.47;0.40;;;;;;;20.43;54.57;94951.50;5074106;28;20445;-68
2023/05/22 08:12:47;;;;;;;1.23;1.13;;;;;;;20.66;54.45;94987.59;5072075;28;20469;-68
2023/05/22 08:15:15;;;;;;;0.50;0.30;;;;;;;20.65;54.90;94987.91;5062859;28;20475;-68
2023/05/22 08:17:46;;;;;;;0.67;0.40;;;;;;;20.62;56.29;94985.91;5073710;28;20444;-69
2023/05/22 08:20:14;;;;;;;2.20;1.13;;;;;;;20.61;56.14;94992.41;5074481;28;20448;-69
2023/05/22 08:22:43;;;;;;;0.40;0.40;;;;;;;20.40;55.61;94994.47;5072452;28;20515;-69
2023/05/22 08:25:11;;;;;;;0.40;0.30;;;;;;;20.44;56.95;94995.38;5073631;28;20926;-70
2023/05/22 08:27:39;;;;;;;0.60;0.50;;;;;;;20.15;57.55;94999.84;5073178;28;20461;-71
2023/05/22 08:30:08;;;;;;;0.50;0.40;;;;;;;19.87;59.27;95000.84;5073373;28;20450;-74
2023/05/22 08:32:37;;;;;;;0.50;0.37;;;;;;;19.76;61.92;94995.09;5073618;28;20866;-77
2023/05/22 08:35:07;;;;;;;0.53;0.30;;;;;;;19.26;61.50;95003.38;5073753;28;20480;-76
2023/05/22 08:37:36;;;;;;;0.50;0.30;;;;;;;18.82;63.04;95015.59;5073811;28;20852;-75
2023/05/22 08:40:05;;;;;;;0.60;0.50;;;;;;;18.66;64.18;95019.22;5073618;28;20532;-75
2023/05/22 08:42:34;;;;;;;0.63;0.40;;;;;;;18.82;64.99;95020.22;5073222;28;20449;-75
2023/05/22 08:45:03;;;;;;;0.50;0.50;;;;;;;19.15;67.21;95022.94;5073694;28;20445;-76
2023/05/22 08:47:34;;;;;;;0.40;0.30;;;;;;;19.15;67.61;95031.00;5073830;28;20514;-76
2023/05/22 08:50:03;;;;;;;0.47;0.30;;;;;;;19.16;68.93;95035.22;5072173;28;20452;-75
2023/05/22 08:52:49;;;;;;;1.23;1.03;;;;;;;18.25;71.82;95027.97;5062137;28;20473;-73
2023/05/22 08:55:19;;;;;;;0.50;0.30;;;;;;;18.29;75.56;95026.97;5073778;28;20805;-71
2023/05/22 08:57:49;;;;;;;0.87;0.80;;;;;;;18.17;79.01;95042.19;5073206;28;20437;-69
2023/05/22 09:00:19;;;;;;;3.00;0.60;;;;;;;17.53;83.91;95017.38;5073089;28;20512;-71
2023/05/22 09:02:49;;;;;;;0.63;0.63;;;;;;;17.80;86.24;95041.09;5073007;28;20445;-71
2023/05/22 09:05:18;;;;;;;0.70;0.70;;;;;;;18.04;85.60;95040.50;5072702;28;20440;-72
2023/05/22 09:07:48;;;;;;;0.40;0.30;;;;;;;17.99;83.33;95056.78;5072719;28;20433;-72
2023/05/22 09:10:17;;;;;;;0.40;0.30;;;;;;;18.15;84.50;95039.06;5072773;28;20919;-73
2023/05/22 09:13:02;;;;;;;1.90;1.50;;;;;;;17.78;84.52;95040.63;5072823;28;20465;-72
2023/05/22 09:15:32;;;;;;;0.40;0.40;;;;;;;17.77;85.79;94966.69;5074430;28;20449;-64
2023/05/22 09:18:01;;;;;;;0.60;0.60;;;;;;;18.27;82.29;95036.47;5072827;28;20957;-74
2023/05/22 09:20:29;;;;;;;3.23;2.43;;;;;;;18.52;81.58;95034.78;5072819;28;20434;-74
2023/05/22 09:23:01;;;;;;;0.87;0.87;;;;;;;18.65;79.40;95031.84;5072670;28;20442;-75
2023/05/22 09:25:30;;;;;;;0.40;0.30;;;;;;;17.99;80.91;94982.50;5073083;28;20433;-76
2023/05/22 09:27:58;;;;;;;0.80;0.63;;;;;;;18.31;80.58;95046.25;5072129;28;20890;-76
2023/05/22 09:30:27;;;;;;;0.53;0.53;;;;;;;18.46;80.11;95034.16;5072604;28;20441;-75
2023/05/22 09:32:55;;;;;;;1.60;0.60;;;;;;;18.23;80.69;95038.22;5072359;28;20476;-76
2023/05/22 09:35:27;;;;;;;0.60;0.50;;;;;;;17.98;82.44;94982.81;5072428;28;20533;-75
2023/05/22 09:37:56;;;;;;;0.40;0.30;;;;;;;18.53;81.32;95034.47;5072588;28;20442;-75
2023/05/22 09:40:27;;;;;;;0.60;0.50;;;;;;;18.63;80.66;95034.06;5072230;28;20498;-76
2023/05/22 09:42:55;;;;;;;0.57;0.57;;;;;;;18.88;78.35;95035.00;5072181;28;21180;-75
2023/05/22 09:45:25;;;;;;;0.97;0.97;;;;;;;19.11;80.42;95030.84;5071470;28;20883;-55
2023/05/22 09:47:53;;;;;;;0.40;0.30;;;;;;;19.30;78.24;95025.00;5072256;28;20438;-56
2023/05/22 09:50:22;;;;;;;3.50;0.30;;;;;;;19.28;78.75;95033.38;5071875;28;20434;-55
2023/05/22 09:52:51;;;;;;;0.77;0.73;;;;;;;19.43;78.97;95034.72;5072240;28;20518;-65
2023/05/22 09:55:22;;;;;;;0.73;0.40;;;;;;;19.12;78.85;95020.91;5071716;28;20973;-64
2023/05/22 09:57:54;;;;;;;0.60;0.60;;;;;;;19.22;78.86;95017.81;5071852;28;20433;-66
2023/05/22 10:00:23;;;;;;;1.67;0.97;;;;;;;19.09;77.07;95003.53;5072206;28;20437;-67
2023/05/22 10:03:02;;;;;;;67.50;1.67;;;;;;;19.75;74.98;95001.63;5072118;28;20437;-67
2023/05/22 10:05:31;;;;;;;1.43;0.60;;;;;;;19.69;73.00;95000.25;5071922;28;20445;-68
2023/05/22 10:08:05;;;;;;;1.07;1.07;;;;;;;19.59;73.70;95003.38;5071784;28;20448;-67
2023/05/22 10:10:36;;;;;;;0.80;0.70;;;;;;;20.63;70.29;94998.25;5071821;28;20446;-64
2023/05/22 10:13:06;;;;;;;1.17;1.07;;;;;;;22.01;68.17;95000.91;5071050;28;20473;-63
2023/05/22 10:15:35;;;;;;;1.00;1.00;;;;;;;22.89;61.27;94995.97;5071723;28;20437;-62
2023/05/22 10:18:05;;;;;;;0.40;0.40;;;;;;;23.90;58.19;94991.75;5071620;28;20926;-61
2023/05/22 10:20:33;;;;;;;0.70;0.70;;;;;;;23.87;57.67;94973.53;5071538;28;20958;-61
2023/05/22 10:23:03;;;;;;;0.60;0.50;;;;;;;25.06;54.01;94945.88;5071247;28;20441;-61
2023/05/22 10:25:33;;;;;;;0.50;0.30;;;;;;;25.13;51.86;94976.56;5071041;28;20441;-61
2023/05/22 10:28:02;;;;;;;0.40;0.40;;;;;;;24.97;51.86;94934.53;5045258;28;20476;-60
2023/05/22 10:30:39;;;;;;;0.83;0.83;;;;;;;26.16;52.63;94981.13;5071518;28;20502;-62
2023/05/22 10:33:13;;;;;;;0.60;0.40;;;;;;;26.31;47.37;94980.06;5071065;28;20977;-61
2023/05/22 10:35:46;;;;;;;0.50;0.40;;;;;;;26.04;48.97;94981.38;5071212;28;20444;-60
2023/05/22 10:38:40;;;;;;;0.50;0.50;;;;;;;26.01;48.16;94987.56;5071094;28;20517;-60
2023/05/22 10:41:10;;;;;;;0.50;0.40;;;;;;;25.96;49.37;94981.72;5071349;28;20448;-60
2023/05/22 10:43:41;;;;;;;1.13;0.70;;;;;;;26.10;48.93;94974.47;5070385;28;20441;-61
2023/05/22 10:46:12;;;;;;;0.60;0.60;;;;;;;26.51;46.80;94974.41;5069856;28;20441;-61
2023/05/22 10:48:45;;;;;;;0.70;0.60;;;;;;;25.54;47.13;94957.66;5070485;28;20438;-61
2023/05/22 10:51:15;;;;;;;0.40;0.30;;;;;;;24.77;46.42;94965.63;5070867;28;20445;-60
2023/05/22 10:53:44;;;;;;;0.53;0.37;;;;;;;24.81;46.39;94948.28;5070697;28;20496;-60
2023/05/22 10:56:14;;;;;;;0.50;0.43;;;;;;;25.38;46.21;94963.28;5071178;28;20495;-60
2023/05/22 10:58:45;;;;;;;0.50;0.40;;;;;;;25.99;44.37;94938.28;5070819;28;20461;-62
2023/05/22 11:01:16;;;;;;;0.40;0.30;;;;;;;26.51;44.04;94949.94;5071354;28;20441;-62
2023/05/22 11:03:52;;;;;;;7.30;0.77;;;;;;;26.74;45.44;94917.84;5045215;28;20434;-62
2023/05/22 11:06:31;;;;;;;0.40;0.40;;;;;;;25.45;44.73;94949.00;5070253;28;20441;-61
2023/05/22 11:08:59;;;;;;;1.17;0.50;;;;;;;25.37;46.08;94936.53;5070235;28;20445;-60
2023/05/22 11:11:28;;;;;;;0.40;0.30;;;;;;;24.01;46.18;94908.78;5069841;28;20977;-60
2023/05/22 11:14:03;;;;;;;0.80;0.50;;;;;;;23.73;48.33;94950.88;5070712;28;20476;-60
2023/05/22 11:16:34;;;;;;;1.33;0.30;;;;;;;23.73;48.76;94908.31;5071138;28;20433;-61
2023/05/22 11:19:07;;;;;;;0.50;0.30;;;;;;;23.38;47.89;94938.28;5070882;28;20529;-61
2023/05/22 11:21:50;;;;;;;0.77;0.63;;;;;;;22.87;48.49;94950.38;5071077;28;20524;-60
2023/05/22 11:24:18;;;;;;;0.90;0.67;;;;;;;22.97;49.28;94954.44;5070374;28;20442;-60
2023/05/22 11:27:02;;;;;;;0.40;0.30;;;;;;;22.65;47.90;94940.28;5070768;28;20530;-60
2023/05/22 11:29:31;;;;;;;0.40;0.30;;;;;;;22.45;48.30;94933.25;5070331;28;20443;-62
2023/05/22 11:32:01;;;;;;;0.30;0.20;;;;;;;22.51;49.88;94954.25;5070589;28;20465;-64
2023/05/22 11:34:30;;;;;;;0.30;0.20;;;;;;;22.68;49.34;94975.47;5070699;28;20569;-65
2023/05/22 11:36:59;;;;;;;0.43;0.30;;;;;;;22.23;48.62;94963.63;5070406;28;20441;-66
2023/05/22 11:39:28;;;;;;;0.30;0.20;;;;;;;22.61;49.62;94967.19;5070808;28;20480;-67
2023/05/22 11:41:56;;;;;;;0.30;0.20;;;;;;;22.24;49.89;94974.06;5070726;28;20449;-66
2023/05/22 11:44:27;;;;;;;0.50;0.40;;;;;;;22.20;51.89;94975.91;5070940;28;20790;-67
2023/05/22 11:46:55;;;;;;;4.43;0.40;;;;;;;22.37;51.78;94970.13;5070238;28;20433;-67